Pagrindinis puslapis
METAR-TAF:

METAR-TAF

Oro uostai :

Billund, Danija

platuma: 55-44N, ilguma: 009-10E, Aukštis: 75 m

Dabartinis oras

Ataskaita buvo paskelbta 25 minutes, ne 09:20 UTC
Vėjas 10 kt iš Vakarų
Temperatūra 14°C
Drėgmė 82%
Slėgis 1009 hPa
Matomumas 10 km arba daugiau

METAR: EKBI 020920Z AUTO 27010KT 9999 BKN016/// 14/11 Q1009

Laikas: 11:45 (09:45 UTC)

Prognozė

Ataskaita buvo paskelbta 2 valandos ir 15 minutes, ne 07:30 UTC
Prognozė galioja nuo 02 metu 07 UTC su 03 metu 06 UTC
Vėjas 8 kt iš Vakarų/Pietvakarių
Matomumas 10 km arba daugiau
Išsisklaidę debesys ne aukštis 2000 ft
Laikinai
nuo 02 metu 07 UTC su 02 metu 15 UTC
Išsisklaidę debesys ne aukštis 2000 ft, Liūtiniai kamuoliniai debesys.
lietus
Tapsmas
nuo 02 metu 08 UTC su 02 metu 11 UTC
Vėjas 14 kt iš Vakarų/Šiaurės Vakarų

TAF: EKBI 020730Z 0207/0306 24008KT 9999 SCT020 TEMPO 0207/0215 SHRA SCT020CB BECMG 0208/0211 30014KT

Orai ataskaitas ir orų prognozės (METAR, TAF).

turimą stotys yra geltonos ir raudonos taškus žemėlapyje.

Perkelti pele per norėdami pamatyti stoties vardą.

Tada spustelėkite, norėdami matyti oro stebėjimo ir prognozės.

Norėdami pakeisti žemėlapį: spustelėkite ant žalios mygtukų su juodo kryžiaus žemyn,; žalią mygtuką su brūkšneliu, jei norite nutolinti; arba žalių rodyklių gretimoms žemėlapius.


METAR-TAF: